Impacts METAR Board
IDs:

KELA - Eagle Lake Arpt, TX, US

Updated at: 1200 UTC 16 Jul 2019
Potential Impact None Slight Moderate High
Time 16/00Z 16/01Z 16/02Z 16/03Z 16/04Z 16/05Z 16/06Z 16/07Z 16/08Z 16/09Z 16/10Z 16/11Z 16/12Z
Temp91 88 86 84 83 82 81 81 81 80 80 79 79
Dewpt79 79 79 79 79 79 79 79 79 79 79 79 79
Altim29.88 29.90 29.91 29.93 29.94 29.95 29.96 29.96 29.96 29.96 29.97 29.99 29.99
VIS10 10 10 10 10 10 10 10 10 10 7 7 4
CIG50 -- -- -- -- -- -- -- -- -- -- 17 3
CoverBKNCLRCLRCLRCLRCLRCLRCLRCLRCLRSCTOVCOVC
FltCatVFRVFRVFRVFRVFRVFRVFRVFRVFRVFRVFRMVFRLIFR
WX------------------------BR
WDir170180180180180180170170180170000
WSpd11 10 7 8 6 7 6 5 4 3 0 0 0
WGst-- -- -- 14 -- -- -- -- -- -- -- -- --
Raw hourly METARs
KELA 152355Z AUTO 17011KT 10SM BKN050 BKN065 33/26 A2988 RMK AO2 T03280262 10364 20328
KELA 160055Z AUTO 18010KT 10SM CLR 31/26 A2990 RMK AO2 T03100259
KELA 160155Z AUTO 18007KT 10SM CLR 30/26 A2991 RMK AO2 T02980261
KELA 160255Z AUTO 18008G14KT 10SM CLR 29/26 A2993 RMK AO2 T02870262
KELA 160355Z AUTO 18006KT 10SM CLR 28/26 A2994 RMK AO2 T02810263
KELA 160455Z AUTO 18007KT 10SM CLR 28/26 A2995 RMK AO2 T02780263
KELA 160555Z AUTO 17006KT 10SM CLR 27/26 A2996 RMK AO2 T02720262 10327 20272 403640261
KELA 160655Z AUTO 17005KT 10SM CLR 27/26 A2996 RMK AO2 T02700261
KELA 160755Z AUTO 18004KT 10SM CLR 27/26 A2996 RMK AO2 T02700261
KELA 160855Z AUTO 17003KT 10SM CLR 27/26 A2996 RMK AO2 T02660260
KELA 160955Z AUTO 00000KT 7SM SCT021 SCT026 26/26 A2997 RMK AO2 T02640260
KELA 161055Z AUTO 00000KT 7SM SCT012 BKN017 OVC027 26/26 A2999 RMK AO2 T02630260
KELA 161155Z AUTO 00000KT 4SM BR BKN003 BKN007 OVC013 26/26 A2999 RMK AO2 70050 T02630260 10272 20262